Time;durP1;ratioP1;P1;durP2;ratioP2;P2;SDS_P1;SDS_P2;PMS_P1;PMS_P2;Temp;Humidity;BMP_temperature;BMP_pressure;BME280_temperature;BME280_humidity;BME280_pressure;Samples;Min_cycle;Max_cycle;Signal;HPM_P1;HPM_P2
2021/03/13 00:00:49;;;;;;;13.60;4.30;;;;;;;3.47;60.26;97975.45;123861;1102;65030;-80
2021/03/13 00:03:16;;;;;;;9.43;5.00;;;;;;;3.43;60.60;97979.20;123829;1102;65068;-83
2021/03/13 00:05:45;;;;;;;8.67;4.30;;;;;;;3.40;60.18;97975.92;123840;1102;64915;-82
2021/03/13 00:08:12;;;;;;;12.47;4.33;;;;;;;3.39;60.08;97979.50;123836;1102;64946;-81
2021/03/13 00:10:40;;;;;;;10.33;3.70;;;;;;;3.35;60.15;97973.55;123891;1102;64898;-81
2021/03/13 00:13:08;;;;;;;12.75;4.20;;;;;;;3.34;60.63;97960.45;123878;1102;64899;-82
2021/03/13 00:15:35;;;;;;;11.30;4.27;;;;;;;3.32;60.49;97957.06;123830;1101;65023;-84
2021/03/13 00:18:03;;;;;;;11.23;4.17;;;;;;;3.32;60.64;97952.64;123496;1102;64917;-81
2021/03/13 00:20:32;;;;;;;12.03;4.50;;;;;;;3.34;60.38;97952.53;123827;1102;64915;-82
2021/03/13 00:22:58;;;;;;;10.83;4.23;;;;;;;3.34;60.35;97950.73;123919;1102;65369;-79
2021/03/13 00:25:28;;;;;;;9.87;3.77;;;;;;;3.34;60.43;97948.10;123869;1102;64977;-85
2021/03/13 00:27:56;;;;;;;10.40;3.73;;;;;;;3.30;60.85;97941.30;123861;1102;65006;-81
2021/03/13 00:30:31;;;;;;;9.00;3.40;;;;;;;3.29;60.33;97939.61;123886;1101;64927;-84
2021/03/13 00:33:00;;;;;;;11.13;3.80;;;;;;;3.30;60.35;97927.27;123824;1102;64924;-81
2021/03/13 00:35:29;;;;;;;8.70;3.70;;;;;;;3.29;60.64;97923.78;123912;1102;65224;-80
2021/03/13 00:37:57;;;;;;;10.77;3.83;;;;;;;3.32;61.03;97909.57;123922;1102;64923;-79
2021/03/13 00:40:26;;;;;;;5.70;2.95;;;;;;;3.36;60.67;97906.63;123886;1101;64899;-85
2021/03/13 00:42:53;;;;;;;5.60;2.67;;;;;;;3.37;60.63;97902.19;123887;1102;64895;-83
2021/03/13 00:45:23;;;;;;;12.25;3.60;;;;;;;3.36;60.33;97903.98;123485;1102;64901;-82
2021/03/13 00:47:50;;;;;;;8.43;3.20;;;;;;;3.50;60.84;97898.73;123511;1102;64975;-82
2021/03/13 00:50:20;;;;;;;12.63;3.40;;;;;;;3.72;61.15;97906.15;123529;1102;65384;-80
2021/03/13 00:52:47;;;;;;;9.30;2.57;;;;;;;3.86;60.98;97904.43;123896;1102;64956;-81
2021/03/13 00:55:15;;;;;;;8.27;3.30;;;;;;;3.94;60.31;97900.34;123848;1102;64978;-81
2021/03/13 00:57:43;;;;;;;10.57;2.93;;;;;;;3.96;60.59;97894.99;123578;1102;64898;-83
2021/03/13 01:00:16;;;;;;;8.23;3.20;;;;;;;3.94;60.58;97892.42;123815;1102;65014;-82
2021/03/13 01:02:44;;;;;;;7.05;2.70;;;;;;;3.94;60.65;97895.06;123480;1102;65023;-79
2021/03/13 01:05:12;;;;;;;5.40;2.97;;;;;;;3.95;60.83;97888.02;123829;1102;65075;-81
2021/03/13 01:07:39;;;;;;;9.93;3.03;;;;;;;3.94;60.77;97881.86;123908;1102;64943;-81
2021/03/13 01:10:18;;;;;;;6.80;2.83;;;;;;;3.95;60.31;97886.22;123487;1102;64981;-83
2021/03/13 01:12:45;;;;;;;5.87;2.93;;;;;;;3.96;60.31;97887.91;123840;1102;64994;-84
2021/03/13 01:15:16;;;;;;;9.60;2.85;;;;;;;3.95;60.87;97878.30;123889;1102;65083;-80
2021/03/13 01:17:42;;;;;;;7.73;3.40;;;;;;;3.94;60.62;97876.58;123465;1105;64885;-83
2021/03/13 01:20:12;;;;;;;9.10;3.13;;;;;;;3.95;60.93;97870.38;123504;1102;65301;-80
2021/03/13 01:22:42;;;;;;;9.77;3.33;;;;;;;3.90;60.56;97861.89;123481;1102;64992;-79
2021/03/13 01:25:11;;;;;;;8.07;3.13;;;;;;;3.84;60.83;97870.20;123866;1102;65000;-80
2021/03/13 01:27:37;;;;;;;7.97;3.93;;;;;;;3.79;60.45;97869.64;123525;1102;65436;-79
2021/03/13 01:30:10;;;;;;;8.60;3.80;;;;;;;3.76;60.55;97862.77;123828;1102;65052;-81
2021/03/13 01:32:37;;;;;;;7.03;3.50;;;;;;;3.76;60.71;97864.57;123848;1102;64841;-80
2021/03/13 01:35:05;;;;;;;7.53;3.17;;;;;;;3.75;61.20;97870.77;123850;1102;64998;-80
2021/03/13 01:37:31;;;;;;;9.57;3.50;;;;;;;3.80;60.88;97866.89;123486;1102;65107;-79
2021/03/13 01:39:58;;;;;;;7.47;3.50;;;;;;;3.86;60.90;97856.89;123816;1102;65000;-80
2021/03/13 01:42:26;;;;;;;14.33;4.10;;;;;;;3.88;61.16;97861.15;123455;1102;65425;-83
2021/03/13 01:44:54;;;;;;;6.27;3.00;;;;;;;3.91;60.58;97860.09;123866;1102;64902;-81
2021/03/13 01:47:24;;;;;;;6.27;2.90;;;;;;;3.94;60.93;97851.95;123827;1102;64918;-81
2021/03/13 01:49:52;;;;;;;7.45;2.75;;;;;;;3.88;60.76;97855.87;123853;1102;64869;-79
2021/03/13 01:52:19;;;;;;;10.43;3.60;;;;;;;3.89;60.83;97852.28;123474;1102;64856;-79
2021/03/13 01:54:50;;;;;;;5.37;2.93;;;;;;;3.93;60.81;97863.47;123856;1102;65058;-80
2021/03/13 01:57:18;;;;;;;6.67;2.67;;;;;;;3.97;60.99;97854.42;123859;1102;64888;-81
2021/03/13 01:59:46;;;;;;;7.70;3.20;;;;;;;3.97;61.29;97843.85;123811;1102;64997;-81
2021/03/13 02:02:15;;;;;;;9.33;2.90;;;;;;;3.96;61.09;97845.65;123903;1102;64891;-84
2021/03/13 02:04:42;;;;;;;6.57;2.60;;;;;;;3.99;61.23;97847.23;123873;1102;64972;-84
2021/03/13 02:07:12;;;;;;;6.95;3.05;;;;;;;4.02;61.05;97849.69;123838;1102;64953;-79
2021/03/13 02:09:53;;;;;;;6.10;2.73;;;;;;;4.06;60.83;97854.66;123867;1101;64895;-82
2021/03/13 02:12:30;;;;;;;5.10;2.50;;;;;;;4.13;61.26;97854.25;123806;1102;64908;-79
2021/03/13 02:15:32;;;;;;;10.83;3.03;;;;;;;4.22;61.06;97849.23;123655;1102;64895;-79
2021/03/13 02:18:26;;;;;;;7.63;2.67;;;;;;;4.29;61.07;97857.61;123278;1105;64959;-82
2021/03/13 02:21:11;;;;;;;9.70;3.13;;;;;;;4.35;61.64;97857.20;123355;1105;65141;-83
2021/03/13 02:24:09;;;;;;;6.90;2.87;;;;;;;4.40;61.14;97868.33;123339;1105;64931;-81
2021/03/13 02:26:44;;;;;;;7.93;2.97;;;;;;;4.44;61.32;97867.16;123363;1104;64917;-81
2021/03/13 02:30:01;;;;;;;7.80;3.35;;;;;;;4.45;61.43;97874.13;123348;1105;64892;-79
2021/03/13 02:32:52;;;;;;;8.73;3.20;;;;;;;4.44;61.69;97872.44;123269;1105;65250;-82
2021/03/13 02:35:41;;;;;;;7.20;3.30;;;;;;;4.40;61.59;97873.61;123360;1105;65103;-78
2021/03/13 02:38:13;;;;;;;6.00;3.15;;;;;;;4.37;62.53;97865.88;123383;1105;65330;-81
2021/03/13 02:40:43;;;;;;;6.60;3.03;;;;;;;4.34;62.14;97881.95;123427;1105;64949;-83
2021/03/13 02:43:13;;;;;;;7.23;3.33;;;;;;;4.31;62.49;97884.77;123233;1106;64962;-78
2021/03/13 02:45:47;;;;;;;8.43;3.10;;;;;;;4.26;62.33;97876.29;123434;1105;64956;-82
2021/03/13 02:48:17;;;;;;;6.45;2.70;;;;;;;4.24;62.67;97867.63;123221;1105;65151;-81
2021/03/13 02:50:44;;;;;;;8.57;2.87;;;;;;;4.21;62.21;97866.05;123367;1105;64950;-83
2021/03/13 02:53:17;;;;;;;5.50;2.60;;;;;;;4.22;63.02;97861.60;123373;1105;65087;-82
2021/03/13 02:55:47;;;;;;;9.33;3.07;;;;;;;4.20;63.10;97867.00;123730;1102;64950;-84
2021/03/13 02:58:15;;;;;;;9.60;2.95;;;;;;;4.17;62.56;97871.62;123909;1101;64937;-81
2021/03/13 03:00:42;;;;;;;11.15;3.50;;;;;;;4.13;62.81;97865.67;123852;1102;64997;-83
2021/03/13 03:03:14;;;;;;;6.47;2.97;;;;;;;4.08;62.97;97873.07;123834;1102;65062;-82
2021/03/13 03:05:57;;;;;;;6.90;2.90;;;;;;;4.03;62.43;97873.36;123858;1102;64908;-81
2021/03/13 03:08:25;;;;;;;6.73;2.90;;;;;;;4.03;62.98;97883.93;123517;1102;64994;-81
2021/03/13 03:10:52;;;;;;;7.33;3.53;;;;;;;4.02;63.50;97884.88;123810;1102;64908;-81
2021/03/13 03:13:23;;;;;;;8.13;3.07;;;;;;;4.01;63.43;97899.04;123816;1102;65023;-81
2021/03/13 03:15:50;;;;;;;4.83;2.70;;;;;;;3.99;63.08;97895.63;123463;1102;64901;-80
2021/03/13 03:18:19;;;;;;;7.30;3.20;;;;;;;3.98;63.04;97895.73;123486;1102;65023;-81
2021/03/13 03:20:50;;;;;;;8.45;4.00;;;;;;;3.95;63.59;97898.58;123899;1102;65262;-82
2021/03/13 03:23:17;;;;;;;9.20;3.43;;;;;;;3.90;63.68;97898.86;123786;1102;64894;-80
2021/03/13 03:25:44;;;;;;;9.00;3.90;;;;;;;3.87;63.48;97901.69;123792;1102;65055;-82
2021/03/13 03:28:15;;;;;;;13.77;3.83;;;;;;;3.86;63.40;97899.99;123818;1102;65380;-81
2021/03/13 03:30:50;;;;;;;5.17;2.93;;;;;;;3.87;63.51;97903.48;123831;1102;64924;-80
2021/03/13 03:33:17;;;;;;;7.17;3.37;;;;;;;3.87;63.42;97895.55;123869;1101;65001;-81
2021/03/13 03:35:46;;;;;;;11.93;5.27;;;;;;;3.89;64.28;97896.33;123860;1102;64947;-84
2021/03/13 03:38:13;;;;;;;8.90;4.07;;;;;;;3.88;64.21;97897.25;123457;1102;65003;-79
2021/03/13 03:40:41;;;;;;;8.80;3.50;;;;;;;3.87;63.91;97901.69;123897;1102;65349;-81
2021/03/13 03:43:12;;;;;;;14.93;4.40;;;;;;;3.85;63.54;97898.30;123889;1102;64975;-80
2021/03/13 03:45:41;;;;;;;12.43;4.33;;;;;;;3.83;64.16;97894.08;123868;1102;64994;-80
2021/03/13 03:48:11;;;;;;;12.07;4.00;;;;;;;3.80;64.08;97901.22;123908;1102;64946;-81
2021/03/13 03:50:42;;;;;;;10.73;4.30;;;;;;;3.79;63.90;97902.17;123836;1102;64895;-81
2021/03/13 03:53:22;;;;;;;11.47;4.00;;;;;;;3.74;63.87;97909.53;123505;1102;64949;-82
2021/03/13 03:55:52;;;;;;;12.03;4.97;;;;;;;3.72;63.83;97915.87;123916;1102;64956;-80
2021/03/13 03:58:25;;;;;;;13.30;4.40;;;;;;;3.66;63.01;97903.05;123942;1102;64918;-80
2021/03/13 04:00:53;;;;;;;9.00;4.20;;;;;;;3.61;64.26;97910.39;123833;1101;64949;-83
2021/03/13 04:03:22;;;;;;;11.00;4.90;;;;;;;3.56;63.99;97912.47;123461;1102;65001;-80
2021/03/13 04:05:50;;;;;;;5.50;3.30;;;;;;;3.48;63.79;97916.43;123853;1102;64962;-81
2021/03/13 04:08:18;;;;;;;10.50;4.63;;;;;;;3.44;64.07;97914.94;123879;1101;64860;-82
2021/03/13 04:10:47;;;;;;;11.73;4.13;;;;;;;3.38;64.45;97910.04;123888;1102;64946;-83
2021/03/13 04:13:18;;;;;;;9.75;3.45;;;;;;;3.31;64.37;97900.81;123863;1102;64991;-84
2021/03/13 04:15:47;;;;;;;9.90;4.30;;;;;;;3.28;64.00;97908.05;123872;1102;65043;-80
2021/03/13 04:18:18;;;;;;;9.77;3.90;;;;;;;3.22;63.60;97888.16;123840;1102;64924;-82
2021/03/13 04:20:47;;;;;;;8.37;3.50;;;;;;;3.16;63.91;97877.98;123813;1102;64924;-84
2021/03/13 04:23:17;;;;;;;8.47;4.03;;;;;;;3.08;64.12;97862.62;123435;1102;64915;-84
2021/03/13 04:25:46;;;;;;;7.07;3.60;;;;;;;3.02;63.60;97870.06;123834;1102;64953;-85
2021/03/13 04:28:12;;;;;;;9.03;3.50;;;;;;;2.96;64.08;97866.84;123914;1102;65078;-82
2021/03/13 04:30:40;;;;;;;9.70;4.20;;;;;;;2.92;64.01;97864.48;123865;1102;64867;-81
2021/03/13 04:33:07;;;;;;;10.30;4.73;;;;;;;2.86;63.94;97865.72;123514;1102;64979;-81
2021/03/13 04:35:34;;;;;;;9.63;4.37;;;;;;;2.81;63.99;97870.41;123831;1102;64988;-84
2021/03/13 04:38:01;;;;;;;7.93;4.33;;;;;;;2.77;64.20;97862.77;123877;1102;64896;-80
2021/03/13 04:40:28;;;;;;;11.33;4.90;;;;;;;2.73;64.44;97871.78;123813;1102;65025;-80
2021/03/13 04:42:55;;;;;;;11.03;4.87;;;;;;;2.69;64.67;97876.41;123779;1102;64866;-83
2021/03/13 04:45:23;;;;;;;8.83;4.50;;;;;;;2.70;64.75;97872.83;123835;1102;64901;-82
2021/03/13 04:47:50;;;;;;;7.77;4.60;;;;;;;2.69;64.22;97873.77;123839;1102;64944;-81
2021/03/13 04:50:21;;;;;;;11.67;5.50;;;;;;;2.68;64.26;97870.30;123769;1102;65050;-82
2021/03/13 04:52:50;;;;;;;12.47;4.80;;;;;;;2.69;64.45;97869.34;123826;1102;65023;-81
2021/03/13 04:55:17;;;;;;;11.73;4.63;;;;;;;2.72;64.25;97876.21;123769;1102;64857;-84
2021/03/13 04:57:43;;;;;;;11.50;4.20;;;;;;;2.76;64.26;97884.80;123851;1102;64917;-82
2021/03/13 05:00:15;;;;;;;15.90;5.30;;;;;;;2.78;64.22;97889.03;123790;1102;64975;-81
2021/03/13 05:02:42;;;;;;;7.70;4.03;;;;;;;2.76;64.44;97883.02;123843;1102;64869;-84
2021/03/13 05:05:09;;;;;;;8.70;4.50;;;;;;;2.75;64.54;97885.75;123805;1102;64984;-81
2021/03/13 05:07:36;;;;;;;10.67;4.70;;;;;;;2.73;64.28;97885.81;123473;1102;65247;-80
2021/03/13 05:10:05;;;;;;;10.80;4.63;;;;;;;2.67;64.08;97881.78;123453;1102;64921;-81
2021/03/13 05:12:31;;;;;;;13.63;4.93;;;;;;;2.63;64.04;97879.41;123911;1102;64898;-80
2021/03/13 05:14:58;;;;;;;16.13;5.80;;;;;;;2.56;64.07;97878.92;123839;1102;64981;-82
2021/03/13 05:17:24;;;;;;;16.83;5.90;;;;;;;2.55;64.16;97884.28;123801;1102;65094;-81
2021/03/13 05:19:50;;;;;;;10.15;4.95;;;;;;;2.53;64.47;97888.77;123812;1102;65017;-82
2021/03/13 05:22:17;;;;;;;14.53;4.47;;;;;;;2.56;64.50;97894.73;123499;1102;64909;-84
2021/03/13 05:24:43;;;;;;;15.03;5.53;;;;;;;2.58;64.52;97892.00;123490;1102;64962;-81
2021/03/13 05:27:10;;;;;;;14.77;6.20;;;;;;;2.57;64.41;97891.16;123507;1102;64885;-81
2021/03/13 05:29:36;;;;;;;19.97;6.80;;;;;;;2.54;64.07;97899.22;123790;1102;65065;-79
2021/03/13 05:32:03;;;;;;;12.23;5.33;;;;;;;2.55;64.62;97892.19;123450;1101;64962;-80
2021/03/13 05:34:29;;;;;;;13.47;5.47;;;;;;;2.58;64.55;97894.63;123775;1102;64921;-81
2021/03/13 05:36:55;;;;;;;11.35;4.60;;;;;;;2.59;64.57;97893.69;123827;1102;64880;-79
2021/03/13 05:39:22;;;;;;;9.10;4.07;;;;;;;2.61;64.55;97886.56;123833;1102;64972;-81
2021/03/13 05:41:49;;;;;;;11.47;3.53;;;;;;;2.63;64.42;97895.22;123812;1102;65043;-81
2021/03/13 05:44:16;;;;;;;11.83;5.60;;;;;;;2.65;64.85;97895.97;123926;1102;64845;-83
2021/03/13 05:46:44;;;;;;;10.05;4.03;;;;;;;2.65;64.29;97888.91;123793;1102;64927;-80
2021/03/13 05:49:13;;;;;;;11.00;5.50;;;;;;;2.65;64.17;97885.42;123454;1102;65444;-82
2021/03/13 05:51:47;;;;;;;11.37;6.03;;;;;;;2.66;64.37;97880.05;123708;1102;64934;-80
2021/03/13 05:54:16;;;;;;;12.30;7.47;;;;;;;2.66;64.42;97884.48;123454;1102;65039;-80
2021/03/13 05:56:43;;;;;;;11.90;5.93;;;;;;;2.67;64.41;97886.17;123812;1102;64863;-84
2021/03/13 05:59:12;;;;;;;12.87;5.30;;;;;;;2.71;64.55;97879.80;123858;1102;64888;-80
2021/03/13 06:01:40;;;;;;;7.00;3.80;;;;;;;2.76;64.62;97877.73;123831;1102;64895;-82
2021/03/13 06:04:06;;;;;;;7.65;3.10;;;;;;;2.80;64.61;97881.91;123792;1102;64991;-81
2021/03/13 06:06:38;;;;;;;6.87;2.80;;;;;;;2.87;64.30;97887.66;123754;1102;65030;-82
2021/03/13 06:09:07;;;;;;;5.87;2.90;;;;;;;2.94;64.37;97886.35;123875;1102;64888;-83
2021/03/13 06:11:33;;;;;;;7.70;3.50;;;;;;;3.05;64.45;97881.25;123461;1102;64959;-83
2021/03/13 06:14:00;;;;;;;8.75;4.00;;;;;;;3.22;64.54;97880.24;123787;1102;65124;-80
2021/03/13 06:16:27;;;;;;;9.95;4.15;;;;;;;3.39;64.54;97880.06;123790;1102;64946;-83
2021/03/13 06:18:56;;;;;;;12.20;4.43;;;;;;;3.51;64.34;97884.59;123745;1102;64994;-84
2021/03/13 06:21:34;;;;;;;11.65;4.95;;;;;;;3.62;64.62;97869.85;123844;1102;65351;-82
2021/03/13 06:24:02;;;;;;;11.33;4.97;;;;;;;3.76;64.11;97875.13;123798;1102;64940;-83
2021/03/13 06:26:49;;;;;;;7.37;4.03;;;;;;;3.90;63.98;97869.81;123511;1102;65064;-83
2021/03/13 06:29:16;;;;;;;10.17;4.10;;;;;;;4.11;63.90;97869.38;123729;1102;64950;-85
2021/03/13 06:31:42;;;;;;;10.10;4.20;;;;;;;4.34;64.39;97860.80;123760;1102;65021;-80
2021/03/13 06:34:25;;;;;;;12.37;4.00;;;;;;;4.56;64.23;97858.41;123799;1102;64930;-82
2021/03/13 06:37:25;;;;;;;5.05;3.15;;;;;;;4.81;64.22;97864.70;123796;1102;65010;-82
2021/03/13 06:39:53;;;;;;;10.03;3.10;;;;;;;5.05;63.73;97862.19;123816;1102;64921;-84
2021/03/13 06:42:24;;;;;;;7.00;3.20;;;;;;;5.20;64.04;97858.47;123496;1102;64911;-85
2021/03/13 06:44:54;;;;;;;10.17;3.23;;;;;;;5.33;63.79;97864.61;123769;1101;64940;-80
2021/03/13 06:47:29;;;;;;;5.60;2.83;;;;;;;5.50;63.21;97862.59;123812;1102;64930;-82
2021/03/13 06:50:15;;;;;;;8.57;3.90;;;;;;;5.90;63.92;97873.83;123755;1102;64947;-82
2021/03/13 06:52:44;;;;;;;7.90;3.07;;;;;;;6.16;62.83;97867.52;123436;1102;64787;-80
2021/03/13 06:55:28;;;;;;;6.30;3.20;;;;;;;6.19;62.97;97863.81;123841;1100;64918;-82
2021/03/13 06:58:09;;;;;;;3.90;2.50;;;;;;;6.26;63.45;97862.41;123751;1102;64984;-82
2021/03/13 07:00:37;;;;;;;7.50;3.53;;;;;;;6.34;63.45;97862.67;123820;1102;64869;-85
2021/03/13 07:03:11;;;;;;;8.25;3.20;;;;;;;6.47;63.32;97865.27;123837;1102;65071;-80
2021/03/13 07:05:39;;;;;;;;;;;;;;;6.56;63.36;97861.95;123827;1102;64843;-82
2021/03/13 07:08:23;;;;;;;7.10;3.70;;;;;;;6.69;62.74;97873.33;123805;1102;64888;-84
2021/03/13 07:10:51;;;;;;;3.95;2.70;;;;;;;6.81;63.02;97874.22;123436;1102;64953;-81
2021/03/13 07:13:38;;;;;;;4.80;2.95;;;;;;;6.92;63.03;97871.57;123848;1102;64976;-82
2021/03/13 07:16:37;;;;;;;5.47;2.27;;;;;;;7.04;62.42;97875.95;123480;1102;64997;-85
2021/03/13 07:19:12;;;;;;;3.77;2.20;;;;;;;7.15;62.33;97868.98;123796;1102;64953;-85
2021/03/13 07:21:42;;;;;;;5.20;2.90;;;;;;;7.27;62.62;97866.23;123804;1102;65337;-82
2021/03/13 07:24:11;;;;;;;5.20;2.80;;;;;;;7.38;62.37;97862.74;123481;1102;65051;-80
2021/03/13 07:26:38;;;;;;;6.37;2.90;;;;;;;7.51;62.92;97868.78;123813;1102;66546;-82
2021/03/13 07:29:07;;;;;;;4.20;2.00;;;;;;;7.65;62.35;97867.69;123804;1102;64894;-84
2021/03/13 07:31:42;;;;;;;3.83;1.90;;;;;;;7.73;62.37;97861.77;123859;1102;64966;-80
2021/03/13 07:34:17;;;;;;;4.95;2.25;;;;;;;7.80;62.01;97854.98;123505;1102;64946;-79
2021/03/13 07:36:45;;;;;;;;;;;;;;;7.86;62.29;97862.48;123538;1102;64944;-80
2021/03/13 07:39:21;;;;;;;9.45;5.20;;;;;;;7.97;62.38;97862.47;123816;1102;65027;-81
2021/03/13 07:42:00;;;;;;;6.83;3.03;;;;;;;8.01;62.40;97863.05;123865;1102;64953;-78
2021/03/13 07:44:28;;;;;;;5.47;2.60;;;;;;;8.12;61.99;97866.53;123782;1102;64965;-84
2021/03/13 07:46:55;;;;;;;4.35;2.80;;;;;;;8.25;61.99;97874.36;123838;1102;64998;-80
2021/03/13 07:49:23;;;;;;;6.47;2.67;;;;;;;8.39;61.54;97859.96;123769;1102;64889;-79
2021/03/13 07:51:50;;;;;;;8.30;3.07;;;;;;;8.45;61.58;97862.12;123822;1102;64946;-82
2021/03/13 07:54:18;;;;;;;14.07;4.30;;;;;;;8.56;61.99;97869.23;123823;1102;64911;-81
2021/03/13 07:56:46;;;;;;;5.90;3.25;;;;;;;8.74;61.93;97857.05;123806;1102;64946;-83
2021/03/13 07:59:32;;;;;;;5.37;2.80;;;;;;;9.00;61.67;97851.35;123754;1102;65219;-81
2021/03/13 08:01:59;;;;;;;5.27;3.30;;;;;;;9.24;61.31;97854.59;123778;1101;64889;-79
2021/03/13 08:04:37;;;;;;;5.75;3.25;;;;;;;9.46;60.68;97862.41;123826;1102;64946;-85
2021/03/13 08:07:05;;;;;;;4.27;2.47;;;;;;;9.59;60.88;97856.02;123792;1102;64954;-82
2021/03/13 08:09:32;;;;;;;10.00;3.47;;;;;;;9.55;60.71;97858.13;123835;1102;65268;-80
2021/03/13 08:11:59;;;;;;;5.53;2.90;;;;;;;9.53;60.53;97853.88;123779;1102;64905;-78
2021/03/13 08:14:33;;;;;;;8.30;3.13;;;;;;;9.46;60.81;97854.42;123805;1102;64946;-82
2021/03/13 08:17:11;;;;;;;4.87;2.03;;;;;;;9.47;60.44;97831.27;123810;1102;65004;-78
2021/03/13 08:19:44;;;;;;;9.53;3.07;;;;;;;9.47;60.82;97842.77;123471;1102;64962;-80
2021/03/13 08:22:15;;;;;;;5.70;2.50;;;;;;;9.48;61.12;97838.31;123823;1102;64997;-80
2021/03/13 08:24:49;;;;;;;3.40;2.13;;;;;;;9.52;60.43;97822.89;123602;1102;64920;-79
2021/03/13 08:27:41;;;;;;;7.10;3.03;;;;;;;9.41;60.13;97826.48;123777;1102;65062;-79
2021/03/13 08:30:14;;;;;;;5.47;2.27;;;;;;;9.40;60.13;97827.45;123777;1102;64905;-77
2021/03/13 08:33:05;;;;;;;9.67;3.60;;;;;;;9.48;60.40;97827.66;123837;1102;64895;-80
2021/03/13 08:35:40;;;;;;;8.10;3.45;;;;;;;9.75;60.79;97833.23;123782;1102;64809;-80
2021/03/13 08:38:07;;;;;;;3.63;2.33;;;;;;;10.26;60.25;97821.59;123457;1102;64841;-83
2021/03/13 08:40:43;;;;;;;5.87;2.53;;;;;;;10.50;59.11;97823.02;123680;1102;65065;-79
2021/03/13 08:43:34;;;;;;;6.37;3.20;;;;;;;10.29;59.67;97821.30;123747;1102;64975;-78
2021/03/13 08:46:02;;;;;;;7.10;2.13;;;;;;;10.08;58.82;97819.70;123775;1102;64940;-77
2021/03/13 08:48:56;;;;;;;16.23;3.57;;;;;;;9.74;59.63;97820.88;123729;1102;64917;-78
2021/03/13 08:51:25;;;;;;;3.90;2.03;;;;;;;9.57;59.91;97812.67;123741;1102;64891;-77
2021/03/13 08:53:53;;;;;;;3.77;2.07;;;;;;;9.48;59.91;97812.52;123769;1101;65071;-79
2021/03/13 08:56:40;;;;;;;4.20;2.40;;;;;;;9.48;59.75;97809.00;123378;1102;64946;-80
2021/03/13 08:59:18;;;;;;;6.53;3.00;;;;;;;9.48;59.68;97804.52;123633;1102;65282;-76
2021/03/13 09:02:00;;;;;;;7.20;2.67;;;;;;;9.58;60.06;97809.02;123532;1102;64918;-77
2021/03/13 09:04:28;;;;;;;6.67;2.60;;;;;;;9.79;60.62;97804.45;123904;1102;65364;-81
2021/03/13 09:06:55;;;;;;;25.63;2.60;;;;;;;9.78;59.15;97809.93;123771;1102;65004;-82
2021/03/13 09:09:25;;;;;;;3.93;2.10;;;;;;;9.59;58.40;97797.38;123715;1102;65354;-78
2021/03/13 09:12:00;;;;;;;3.77;1.90;;;;;;;9.47;58.73;97789.48;123849;1102;64915;-76
2021/03/13 09:14:27;;;;;;;10.60;2.43;;;;;;;9.41;58.69;97784.69;123624;1102;65001;-77
2021/03/13 09:16:54;;;;;;;6.07;2.70;;;;;;;9.50;59.63;97785.72;123875;1102;65000;-78
2021/03/13 09:19:23;;;;;;;9.90;2.35;;;;;;;9.62;59.60;97784.64;123697;1102;65038;-79
2021/03/13 09:21:53;;;;;;;6.83;2.40;;;;;;;9.74;59.10;97786.22;123965;1102;64910;-78
2021/03/13 09:24:25;;;;;;;3.17;1.87;;;;;;;9.82;58.90;97782.03;123547;1102;64923;-77
2021/03/13 09:26:58;;;;;;;4.40;2.57;;;;;;;10.01;60.09;97774.91;123773;1102;64898;-78
2021/03/13 09:29:32;;;;;;;12.05;2.80;;;;;;;10.34;60.08;97777.34;123695;1102;64921;-80
2021/03/13 09:32:06;;;;;;;7.20;2.30;;;;;;;10.55;58.35;97759.35;123945;1102;65075;-76
2021/03/13 09:34:37;;;;;;;3.77;2.13;;;;;;;10.48;59.51;97759.08;123686;1102;65011;-79
2021/03/13 09:37:30;;;;;;;2.87;2.03;;;;;;;10.51;59.54;97756.14;123893;1102;64913;-80
2021/03/13 09:40:10;;;;;;;3.40;1.73;;;;;;;10.55;59.22;97741.50;123793;1102;64869;-80
2021/03/13 09:42:38;;;;;;;2.10;1.60;;;;;;;10.50;59.23;97753.62;123928;1102;64850;-82
2021/03/13 09:45:08;;;;;;;3.40;2.00;;;;;;;10.51;58.94;97750.80;123768;1102;64953;-81
2021/03/13 09:47:54;;;;;;;6.43;3.60;;;;;;;10.49;59.00;97754.58;123418;1105;64937;-79
2021/03/13 09:50:31;;;;;;;3.00;2.40;;;;;;;10.58;59.11;97739.55;123754;1102;64905;-78
2021/03/13 09:53:00;;;;;;;4.50;2.33;;;;;;;10.66;59.07;97745.02;123833;1102;65292;-84
2021/03/13 09:55:29;;;;;;;4.23;2.53;;;;;;;10.73;59.33;97741.62;123792;1102;64918;-79
2021/03/13 09:57:58;;;;;;;5.40;3.30;;;;;;;10.82;59.71;97735.44;123734;1102;65168;-77
2021/03/13 10:00:30;;;;;;;9.90;3.75;;;;;;;10.83;59.77;97723.77;123493;1102;65343;-81
2021/03/13 10:02:59;;;;;;;7.30;4.57;;;;;;;10.95;59.53;97721.77;123406;1102;64994;-80
2021/03/13 10:05:30;;;;;;;7.50;3.37;;;;;;;10.90;58.85;97720.52;123835;1102;65017;-80
2021/03/13 10:08:05;;;;;;;4.23;2.90;;;;;;;10.76;58.71;97721.82;123343;1102;64853;-81
2021/03/13 10:10:35;;;;;;;3.37;2.57;;;;;;;10.65;58.76;97725.48;123387;1102;64914;-80
2021/03/13 10:13:05;;;;;;;7.60;2.57;;;;;;;10.62;59.52;97717.75;123981;1102;64966;-79
2021/03/13 10:15:38;;;;;;;6.57;2.20;;;;;;;10.46;58.56;97721.02;123941;1102;65058;-76
2021/03/13 10:18:10;;;;;;;4.25;2.50;;;;;;;10.31;58.43;97705.56;123956;1102;64911;-80
2021/03/13 10:20:53;;;;;;;9.18;3.80;;;;;;;10.15;58.81;97722.97;123954;1102;64917;-80
2021/03/13 10:23:36;;;;;;;8.50;3.90;;;;;;;10.15;59.43;97722.97;123825;1102;64934;-78
2021/03/13 10:26:07;;;;;;;11.13;4.23;;;;;;;10.20;59.05;97701.21;123760;1102;64952;-82
2021/03/13 10:28:38;;;;;;;8.13;4.40;;;;;;;10.18;58.85;97706.70;123709;1102;64991;-78
2021/03/13 10:31:20;;;;;;;9.23;4.63;;;;;;;10.20;58.58;97699.37;123830;1102;65314;-79
2021/03/13 10:33:50;;;;;;;14.45;5.75;;;;;;;10.16;59.03;97703.30;126141;1102;64941;-79
2021/03/13 10:36:19;;;;;;;8.20;4.40;;;;;;;10.21;59.68;97698.39;123891;1102;64941;-78
2021/03/13 10:38:50;;;;;;;8.13;3.47;;;;;;;10.23;58.83;97693.78;123452;1102;64959;-78
2021/03/13 10:41:23;;;;;;;9.33;4.23;;;;;;;10.26;59.08;97692.67;123848;1102;64901;-79
2021/03/13 10:43:54;;;;;;;6.37;3.73;;;;;;;10.40;59.03;97689.56;123891;1102;64888;-81
2021/03/13 10:46:23;;;;;;;8.43;4.10;;;;;;;10.55;59.58;97690.78;123815;1102;65056;-81
2021/03/13 10:48:49;;;;;;;6.70;4.10;;;;;;;10.67;59.47;97686.13;123694;1102;65097;-81
2021/03/13 10:51:32;;;;;;;7.23;3.83;;;;;;;10.78;59.14;97677.11;123715;1102;64911;-82
2021/03/13 10:54:03;;;;;;;8.70;4.50;;;;;;;10.94;59.55;97677.35;123514;1102;64969;-82
2021/03/13 10:56:41;;;;;;;5.10;2.50;;;;;;;10.93;58.86;97674.80;123836;1102;65000;-79
2021/03/13 10:59:09;;;;;;;5.93;3.50;;;;;;;10.89;59.11;97663.59;123321;1102;65023;-82
2021/03/13 11:01:37;;;;;;;12.35;4.20;;;;;;;10.88;58.82;97661.04;123788;1102;64946;-80
2021/03/13 11:04:04;;;;;;;7.63;3.70;;;;;;;10.91;59.14;97652.75;123792;1102;64902;-80
2021/03/13 11:06:35;;;;;;;9.37;4.13;;;;;;;11.03;58.65;97639.06;123748;1102;64981;-79
2021/03/13 11:09:10;;;;;;;14.80;3.20;;;;;;;11.06;57.93;97652.11;123554;1102;64942;-79
2021/03/13 11:11:38;;;;;;;7.53;3.13;;;;;;;11.00;58.45;97642.02;123755;1102;64985;-78
2021/03/13 11:14:09;;;;;;;7.43;3.83;;;;;;;11.05;59.36;97645.09;123612;1102;64985;-76
2021/03/13 11:16:37;;;;;;;5.73;3.17;;;;;;;11.19;59.13;97630.39;123396;1102;65355;-79
2021/03/13 11:19:05;;;;;;;5.27;2.57;;;;;;;11.34;58.24;97636.92;123570;1102;64892;-79
2021/03/13 11:21:33;;;;;;;8.10;2.77;;;;;;;11.32;58.27;97641.59;123408;1102;64828;-79
2021/03/13 11:24:00;;;;;;;10.30;2.50;;;;;;;11.34;57.49;97628.91;123715;1102;66101;-78
2021/03/13 11:26:26;;;;;;;6.07;2.47;;;;;;;11.40;58.41;97638.16;123741;1102;65083;-78
2021/03/13 11:28:53;;;;;;;8.63;4.70;;;;;;;11.46;58.09;97634.89;123665;1102;64937;-79
2021/03/13 11:31:21;;;;;;;7.17;2.40;;;;;;;11.49;57.77;97628.39;123707;1102;64882;-78
2021/03/13 11:33:52;;;;;;;11.27;5.30;;;;;;;11.31;57.93;97625.69;123729;1102;65020;-75
2021/03/13 11:36:21;;;;;;;8.17;3.30;;;;;;;11.27;58.14;97629.66;123554;1102;64930;-80
2021/03/13 11:38:48;;;;;;;6.17;2.90;;;;;;;11.09;58.29;97619.77;123724;1102;64918;-79
2021/03/13 11:41:15;;;;;;;8.43;4.47;;;;;;;10.98;58.67;97621.79;123827;1102;64956;-76
2021/03/13 11:43:43;;;;;;;7.57;3.20;;;;;;;10.91;58.52;97623.37;123760;1102;64828;-80
2021/03/13 11:46:13;;;;;;;6.00;2.60;;;;;;;10.86;59.04;97614.95;123796;1102;64947;-78
2021/03/13 11:48:41;;;;;;;7.27;3.90;;;;;;;10.84;58.59;97620.45;123752;1102;64943;-77